THY9704 EFHK-LTFM
Flight info
| Callsign | THY9704 |
|---|---|
| Flight time | N/A |
| Altitude | 38000 |
| Route | KOIVU Y123 LARTI DCT OSLAX/N0469F390 DCT NEVTO/N0473F380 DCT BERIL/N0473F390 DCT NAPOT/N0474F380 DCT SUWGI DCT TOXAR/N0475F390 DCT LIBGA/N0475F400 DCT ROBTU/N0473F390 DCT KENIN DCT EBILO DCT RONBU DCT BUVAK DCT RIXEN |
| Aircraft | A333/H-SDE3GHIJ2J3J5M1RVWXY/LB2D1 |
Departure
| Time | 2026-02-18 08:24 |
|---|---|
| Airport | Helsinki Vantaa Airport (EFHK) |
Arrival
| Time | N/A |
|---|---|
| Airport | İstanbul Airport (LTFM) |
| Time | Latitude | Longitude | Altitude | Speed | Heading |
|---|---|---|---|---|---|
| 2026-02-18 07:54 | 60.32019 | 24.96848 | 172 ft | 0 kts | 192° |
| 2026-02-18 08:09 | 60.32023 | 24.96849 | 172 ft | 2 kts | 192° |
| 2026-02-18 08:09 | 60.32035 | 24.96855 | 172 ft | 2 kts | 192° |
| 2026-02-18 08:09 | 60.32048 | 24.96860 | 172 ft | 2 kts | 192° |
| 2026-02-18 08:10 | 60.32060 | 24.96865 | 172 ft | 2 kts | 192° |
| 2026-02-18 08:10 | 60.32074 | 24.96871 | 172 ft | 2 kts | 192° |
| 2026-02-18 08:10 | 60.32084 | 24.96876 | 172 ft | 0 kts | 192° |
| 2026-02-18 08:10 | 60.32097 | 24.96880 | 172 ft | 2 kts | 181° |
| 2026-02-18 08:11 | 60.32113 | 24.96877 | 172 ft | 2 kts | 163° |
| 2026-02-18 08:11 | 60.32126 | 24.96865 | 172 ft | 1 kts | 149° |
| 2026-02-18 08:11 | 60.32131 | 24.96859 | 173 ft | 0 kts | 146° |
| 2026-02-18 08:13 | 60.32126 | 24.96866 | 172 ft | 2 kts | 146° |
| 2026-02-18 08:13 | 60.32094 | 24.96910 | 172 ft | 8 kts | 146° |
| 2026-02-18 08:14 | 60.32032 | 24.96985 | 170 ft | 13 kts | 152° |
| 2026-02-18 08:14 | 60.31937 | 24.97084 | 168 ft | 17 kts | 154° |
| 2026-02-18 08:14 | 60.31850 | 24.97171 | 167 ft | 15 kts | 154° |
| 2026-02-18 08:14 | 60.31753 | 24.97269 | 165 ft | 17 kts | 153° |
| 2026-02-18 08:15 | 60.31661 | 24.97366 | 164 ft | 12 kts | 144° |
| 2026-02-18 08:15 | 60.31667 | 24.97489 | 164 ft | 11 kts | 356° |
| 2026-02-18 08:15 | 60.31749 | 24.97422 | 164 ft | 12 kts | 332° |
| 2026-02-18 08:15 | 60.31820 | 24.97346 | 165 ft | 12 kts | 332° |
| 2026-02-18 08:16 | 60.31893 | 24.97267 | 166 ft | 12 kts | 331° |
| 2026-02-18 08:16 | 60.31969 | 24.97180 | 167 ft | 12 kts | 330° |
| 2026-02-18 08:16 | 60.32045 | 24.97107 | 168 ft | 12 kts | 335° |
| 2026-02-18 08:16 | 60.32121 | 24.97033 | 171 ft | 12 kts | 334° |
| 2026-02-18 08:17 | 60.32195 | 24.96958 | 172 ft | 12 kts | 333° |
| 2026-02-18 08:17 | 60.32285 | 24.96750 | 175 ft | 11 kts | 244° |
| 2026-02-18 08:17 | 60.32234 | 24.96631 | 176 ft | 11 kts | 227° |
| 2026-02-18 08:18 | 60.32179 | 24.96516 | 177 ft | 11 kts | 226° |
| 2026-02-18 08:18 | 60.32125 | 24.96397 | 177 ft | 12 kts | 228° |
| 2026-02-18 08:18 | 60.32063 | 24.96261 | 178 ft | 14 kts | 226° |
| 2026-02-18 08:18 | 60.32000 | 24.96113 | 179 ft | 16 kts | 229° |
| 2026-02-18 08:19 | 60.31916 | 24.95933 | 179 ft | 18 kts | 226° |
| 2026-02-18 08:19 | 60.31833 | 24.95756 | 179 ft | 18 kts | 229° |
| 2026-02-18 08:19 | 60.31750 | 24.95570 | 179 ft | 18 kts | 227° |
| 2026-02-18 08:19 | 60.31665 | 24.95388 | 178 ft | 19 kts | 229° |
| 2026-02-18 08:20 | 60.31578 | 24.95191 | 177 ft | 19 kts | 227° |
| 2026-02-18 08:20 | 60.31499 | 24.95014 | 176 ft | 17 kts | 227° |
| 2026-02-18 08:20 | 60.31415 | 24.94830 | 174 ft | 19 kts | 227° |
| 2026-02-18 08:20 | 60.31325 | 24.94633 | 171 ft | 20 kts | 228° |
| 2026-02-18 08:21 | 60.31232 | 24.94427 | 169 ft | 21 kts | 226° |
| 2026-02-18 08:21 | 60.31065 | 24.94057 | 166 ft | 17 kts | 229° |
| 2026-02-18 08:21 | 60.30992 | 24.93888 | 166 ft | 13 kts | 237° |
| 2026-02-18 08:22 | 60.30985 | 24.93736 | 166 ft | 6 kts | 308° |
| 2026-02-18 08:22 | 60.30988 | 24.93727 | 166 ft | 0 kts | 313° |
| 2026-02-18 08:22 | 60.31003 | 24.93697 | 166 ft | 6 kts | 315° |
| 2026-02-18 08:22 | 60.31054 | 24.93628 | 166 ft | 10 kts | 336° |
| 2026-02-18 08:23 | 60.31126 | 24.93626 | 166 ft | 10 kts | 27° |
| 2026-02-18 08:23 | 60.31182 | 24.93739 | 166 ft | 12 kts | 49° |
| 2026-02-18 08:23 | 60.31314 | 24.94038 | 167 ft | 59 kts | 47° |
| 2026-02-18 08:23 | 60.31726 | 24.94945 | 177 ft | 116 kts | 48° |
| 2026-02-18 08:24 | 60.32364 | 24.96312 | 215 ft | 158 kts | 45° |
| 2026-02-18 08:24 | 60.33170 | 24.97976 | 635 ft | 168 kts | 49° |
| 2026-02-18 08:24 | 60.33941 | 24.99684 | 1192 ft | 174 kts | 52° |
| 2026-02-18 08:24 | 60.34774 | 25.01582 | 1617 ft | 190 kts | 53° |
| 2026-02-18 08:25 | 60.35674 | 25.03635 | 2038 ft | 207 kts | 53° |
| 2026-02-18 08:25 | 60.37755 | 25.08305 | 2856 ft | 243 kts | 52° |
| 2026-02-18 08:25 | 60.38839 | 25.10956 | 3280 ft | 254 kts | 66° |
| 2026-02-18 08:26 | 60.39238 | 25.14281 | 3960 ft | 247 kts | 98° |
| 2026-02-18 08:26 | 60.38800 | 25.17465 | 4738 ft | 240 kts | 120° |
| 2026-02-18 08:26 | 60.38070 | 25.20468 | 5469 ft | 244 kts | 120° |
| 2026-02-18 08:26 | 60.37326 | 25.23497 | 6199 ft | 247 kts | 120° |
| 2026-02-18 08:27 | 60.36561 | 25.26674 | 6954 ft | 250 kts | 120° |
| 2026-02-18 08:27 | 60.35822 | 25.29784 | 7623 ft | 253 kts | 120° |
| 2026-02-18 08:27 | 60.35073 | 25.32956 | 8368 ft | 255 kts | 121° |
| 2026-02-18 08:27 | 60.34069 | 25.35797 | 9007 ft | 252 kts | 143° |
| 2026-02-18 08:28 | 60.32531 | 25.37371 | 9679 ft | 252 kts | 167° |
| 2026-02-18 08:28 | 60.30856 | 25.37616 | 10354 ft | 254 kts | 178° |
| 2026-02-18 08:28 | 60.29090 | 25.37610 | 10764 ft | 266 kts | 178° |
| 2026-02-18 08:28 | 60.27184 | 25.37615 | 11076 ft | 282 kts | 178° |
| 2026-02-18 08:29 | 60.25230 | 25.37522 | 11366 ft | 298 kts | 185° |
| 2026-02-18 08:29 | 60.21467 | 25.33868 | 11904 ft | 338 kts | 218° |
| 2026-02-18 08:29 | 60.19712 | 25.30590 | 12223 ft | 352 kts | 218° |
| 2026-02-18 08:30 | 60.17843 | 25.27114 | 12813 ft | 358 kts | 218° |
| 2026-02-18 08:30 | 60.16051 | 25.23799 | 13518 ft | 360 kts | 218° |
| 2026-02-18 08:30 | 60.14208 | 25.20391 | 14146 ft | 364 kts | 218° |
| 2026-02-18 08:30 | 60.12313 | 25.16911 | 14760 ft | 368 kts | 218° |
| 2026-02-18 08:31 | 60.10434 | 25.13469 | 15402 ft | 371 kts | 218° |
| 2026-02-18 08:31 | 60.08543 | 25.10018 | 16022 ft | 374 kts | 218° |
| 2026-02-18 08:31 | 60.06634 | 25.06536 | 16599 ft | 378 kts | 218° |
| 2026-02-18 08:31 | 60.04659 | 25.02945 | 17183 ft | 382 kts | 219° |
| 2026-02-18 08:32 | 60.02646 | 24.99288 | 17782 ft | 386 kts | 219° |
| 2026-02-18 08:32 | 60.00632 | 24.95634 | 18355 ft | 390 kts | 219° |
| 2026-02-18 08:32 | 59.98580 | 24.91915 | 18900 ft | 394 kts | 219° |
| 2026-02-18 08:32 | 59.96518 | 24.88188 | 19404 ft | 399 kts | 219° |
| 2026-02-18 08:33 | 59.94424 | 24.84404 | 19929 ft | 403 kts | 219° |
| 2026-02-18 08:33 | 59.90201 | 24.76800 | 20928 ft | 410 kts | 219° |
| 2026-02-18 08:33 | 59.88093 | 24.73015 | 21411 ft | 413 kts | 219° |
| 2026-02-18 08:34 | 59.85878 | 24.69403 | 21820 ft | 414 kts | 212° |
| 2026-02-18 08:34 | 59.83395 | 24.66610 | 22253 ft | 415 kts | 202° |
| 2026-02-18 08:34 | 59.80580 | 24.64622 | 22683 ft | 416 kts | 193° |
| 2026-02-18 08:34 | 59.77718 | 24.63249 | 23102 ft | 419 kts | 192° |
| 2026-02-18 08:35 | 59.74855 | 24.61938 | 23504 ft | 423 kts | 192° |
| 2026-02-18 08:35 | 59.71981 | 24.60616 | 23933 ft | 426 kts | 192° |
| 2026-02-18 08:35 | 59.69065 | 24.59263 | 24295 ft | 429 kts | 192° |
| 2026-02-18 08:35 | 59.66139 | 24.57900 | 24665 ft | 432 kts | 192° |
| 2026-02-18 08:36 | 59.63233 | 24.56583 | 25030 ft | 435 kts | 191° |
| 2026-02-18 08:36 | 59.60238 | 24.55242 | 25401 ft | 438 kts | 191° |
| 2026-02-18 08:36 | 59.57267 | 24.53920 | 25778 ft | 440 kts | 192° |
| 2026-02-18 08:36 | 59.54275 | 24.52585 | 26138 ft | 442 kts | 191° |
| 2026-02-18 08:37 | 59.51295 | 24.51257 | 26498 ft | 444 kts | 191° |
| 2026-02-18 08:37 | 59.45216 | 24.48556 | 27182 ft | 449 kts | 191° |
| 2026-02-18 08:37 | 59.42192 | 24.47216 | 27528 ft | 451 kts | 191° |
| 2026-02-18 08:38 | 59.39133 | 24.45865 | 27840 ft | 454 kts | 192° |
| 2026-02-18 08:38 | 59.36054 | 24.44506 | 28128 ft | 457 kts | 191° |
| 2026-02-18 08:38 | 59.33000 | 24.43159 | 28496 ft | 457 kts | 191° |
| 2026-02-18 08:38 | 59.29875 | 24.41782 | 28976 ft | 456 kts | 191° |
| 2026-02-18 08:39 | 59.26752 | 24.40408 | 29433 ft | 454 kts | 191° |
| 2026-02-18 08:39 | 59.23738 | 24.39085 | 29845 ft | 453 kts | 191° |
| 2026-02-18 08:39 | 59.20637 | 24.37727 | 30255 ft | 453 kts | 191° |
| 2026-02-18 08:39 | 59.17518 | 24.36366 | 30660 ft | 452 kts | 191° |
| 2026-02-18 08:40 | 59.14452 | 24.35028 | 31047 ft | 451 kts | 191° |
| 2026-02-18 08:40 | 59.11357 | 24.33685 | 31424 ft | 451 kts | 191° |
| 2026-02-18 08:40 | 59.08372 | 24.32388 | 31800 ft | 450 kts | 191° |
| 2026-02-18 08:40 | 59.05336 | 24.31070 | 32149 ft | 450 kts | 191° |
| 2026-02-18 08:41 | 59.02266 | 24.29744 | 32473 ft | 449 kts | 191° |
| 2026-02-18 08:41 | 58.96169 | 24.27112 | 33141 ft | 448 kts | 191° |
| 2026-02-18 08:41 | 58.93151 | 24.25813 | 33479 ft | 447 kts | 191° |
| 2026-02-18 08:42 | 58.90070 | 24.24489 | 33736 ft | 446 kts | 191° |
| 2026-02-18 08:42 | 58.87137 | 24.23230 | 33909 ft | 446 kts | 191° |
| 2026-02-18 08:42 | 58.84099 | 24.21930 | 34149 ft | 447 kts | 191° |
| 2026-02-18 08:42 | 58.81103 | 24.20651 | 34465 ft | 447 kts | 191° |
| 2026-02-18 08:43 | 58.78086 | 24.19362 | 34671 ft | 446 kts | 191° |
| 2026-02-18 08:43 | 58.75138 | 24.18102 | 34892 ft | 446 kts | 191° |
| 2026-02-18 08:43 | 58.72050 | 24.16788 | 35073 ft | 447 kts | 191° |
| 2026-02-18 08:43 | 58.69002 | 24.15496 | 35290 ft | 447 kts | 191° |
| 2026-02-18 08:44 | 58.66005 | 24.14226 | 35462 ft | 448 kts | 191° |
| 2026-02-18 08:44 | 58.62944 | 24.12933 | 35700 ft | 447 kts | 191° |
| 2026-02-18 08:44 | 58.59959 | 24.11675 | 35913 ft | 447 kts | 192° |
| 2026-02-18 08:44 | 58.56976 | 24.10418 | 36114 ft | 446 kts | 192° |
| 2026-02-18 08:45 | 58.53921 | 24.09134 | 36343 ft | 446 kts | 192° |
| 2026-02-18 08:45 | 58.47912 | 24.06613 | 36559 ft | 448 kts | 192° |
| 2026-02-18 08:45 | 58.44851 | 24.05332 | 36719 ft | 449 kts | 192° |
| 2026-02-18 08:46 | 58.41855 | 24.04080 | 36893 ft | 449 kts | 192° |
| 2026-02-18 08:46 | 58.38808 | 24.02809 | 37059 ft | 449 kts | 192° |
| 2026-02-18 08:46 | 58.35777 | 24.01546 | 37181 ft | 450 kts | 192° |
| 2026-02-18 08:46 | 58.32695 | 24.00265 | 37266 ft | 452 kts | 192° |
| 2026-02-18 08:47 | 58.29648 | 23.98999 | 37399 ft | 453 kts | 192° |
| 2026-02-18 08:47 | 58.26537 | 23.97711 | 37526 ft | 454 kts | 192° |
| 2026-02-18 08:47 | 58.23427 | 23.96425 | 37627 ft | 455 kts | 193° |
| 2026-02-18 08:47 | 58.20395 | 23.95174 | 37709 ft | 455 kts | 193° |
| 2026-02-18 08:48 | 58.14209 | 23.92631 | 37895 ft | 457 kts | 193° |
| 2026-02-18 08:48 | 58.11179 | 23.91387 | 38001 ft | 458 kts | 193° |
| 2026-02-18 08:48 | 58.08041 | 23.90103 | 37954 ft | 458 kts | 192° |
| 2026-02-18 08:49 | 57.98540 | 23.87747 | 37978 ft | 460 kts | 184° |
| 2026-02-18 08:50 | 57.92163 | 23.87241 | 37943 ft | 460 kts | 183° |
| 2026-02-18 08:50 | 57.85865 | 23.86703 | 37951 ft | 460 kts | 183° |
| 2026-02-18 08:51 | 57.79628 | 23.86178 | 37963 ft | 459 kts | 184° |
| 2026-02-18 08:51 | 57.73374 | 23.85556 | 37946 ft | 459 kts | 186° |
| 2026-02-18 08:52 | 57.67192 | 23.83977 | 37938 ft | 459 kts | 191° |
| 2026-02-18 08:52 | 57.60988 | 23.81926 | 37961 ft | 459 kts | 191° |
| 2026-02-18 08:53 | 57.54753 | 23.79913 | 37933 ft | 459 kts | 191° |
| 2026-02-18 08:53 | 57.45541 | 23.76938 | 37947 ft | 457 kts | 191° |
| 2026-02-18 08:54 | 57.39417 | 23.74963 | 37936 ft | 458 kts | 191° |
| 2026-02-18 08:54 | 57.33223 | 23.72972 | 37945 ft | 458 kts | 191° |
| 2026-02-18 08:55 | 57.27006 | 23.70980 | 37902 ft | 458 kts | 191° |
| 2026-02-18 08:55 | 57.20631 | 23.68945 | 37956 ft | 459 kts | 191° |
| 2026-02-18 08:56 | 57.14342 | 23.66942 | 37926 ft | 459 kts | 191° |
| 2026-02-18 08:56 | 57.07995 | 23.64930 | 37951 ft | 460 kts | 191° |
| 2026-02-18 08:57 | 56.98485 | 23.61925 | 37976 ft | 460 kts | 191° |
| 2026-02-18 08:58 | 56.92144 | 23.59929 | 37946 ft | 459 kts | 191° |
| 2026-02-18 08:58 | 56.85882 | 23.57967 | 37951 ft | 459 kts | 191° |
| 2026-02-18 08:59 | 56.79610 | 23.56009 | 37968 ft | 459 kts | 192° |
| 2026-02-18 08:59 | 56.73277 | 23.54037 | 37933 ft | 459 kts | 192° |
| 2026-02-18 09:00 | 56.66949 | 23.52072 | 37917 ft | 460 kts | 192° |
| 2026-02-18 09:00 | 56.60614 | 23.50114 | 37925 ft | 460 kts | 192° |
| 2026-02-18 09:01 | 56.54275 | 23.48161 | 37893 ft | 460 kts | 192° |
| 2026-02-18 09:01 | 56.44772 | 23.45239 | 37909 ft | 459 kts | 192° |
| 2026-02-18 09:02 | 56.38387 | 23.43289 | 37896 ft | 460 kts | 192° |
| 2026-02-18 09:02 | 56.32039 | 23.41886 | 37891 ft | 461 kts | 188° |
| 2026-02-18 09:03 | 56.25554 | 23.40668 | 37892 ft | 461 kts | 188° |
| 2026-02-18 09:03 | 56.19101 | 23.39446 | 37896 ft | 462 kts | 188° |
| 2026-02-18 09:04 | 56.12657 | 23.38243 | 37896 ft | 461 kts | 188° |
| 2026-02-18 09:04 | 56.06280 | 23.37062 | 37884 ft | 460 kts | 189° |
| 2026-02-18 09:05 | 55.96631 | 23.35273 | 37894 ft | 461 kts | 188° |
| 2026-02-18 09:06 | 55.90164 | 23.34086 | 37898 ft | 461 kts | 188° |
| 2026-02-18 09:06 | 55.83739 | 23.32907 | 37902 ft | 461 kts | 188° |
| 2026-02-18 09:07 | 55.77345 | 23.31739 | 37883 ft | 462 kts | 188° |
| 2026-02-18 09:07 | 55.70915 | 23.30565 | 37911 ft | 461 kts | 188° |
| 2026-02-18 09:08 | 55.64601 | 23.29420 | 37886 ft | 461 kts | 188° |
| 2026-02-18 09:08 | 55.58248 | 23.28269 | 37882 ft | 461 kts | 188° |
| 2026-02-18 09:09 | 55.51971 | 23.27136 | 37913 ft | 461 kts | 188° |
| 2026-02-18 09:09 | 55.42374 | 23.25351 | 37857 ft | 462 kts | 190° |
| 2026-02-18 09:10 | 55.36092 | 23.23653 | 37872 ft | 461 kts | 191° |
| 2026-02-18 09:10 | 55.29789 | 23.21978 | 37874 ft | 461 kts | 191° |
| 2026-02-18 09:11 | 55.23627 | 23.20340 | 37849 ft | 461 kts | 191° |
| 2026-02-18 09:11 | 55.17239 | 23.18641 | 37876 ft | 460 kts | 191° |
| 2026-02-18 09:12 | 55.10949 | 23.16968 | 37873 ft | 461 kts | 191° |
| 2026-02-18 09:12 | 55.04650 | 23.15294 | 37856 ft | 462 kts | 191° |
| 2026-02-18 09:13 | 54.95192 | 23.12797 | 37863 ft | 462 kts | 191° |
| 2026-02-18 09:14 | 54.88880 | 23.11135 | 37875 ft | 462 kts | 191° |
| 2026-02-18 09:14 | 54.82640 | 23.09497 | 37877 ft | 461 kts | 191° |
| 2026-02-18 09:15 | 54.76363 | 23.07856 | 37875 ft | 461 kts | 191° |
| 2026-02-18 09:15 | 54.70029 | 23.06204 | 37872 ft | 461 kts | 191° |
| 2026-02-18 09:16 | 54.63769 | 23.04578 | 37870 ft | 461 kts | 191° |
| 2026-02-18 09:16 | 54.57476 | 23.02946 | 37861 ft | 462 kts | 191° |
| 2026-02-18 09:17 | 54.51128 | 23.01306 | 37857 ft | 462 kts | 191° |
| 2026-02-18 09:17 | 54.41744 | 22.98894 | 37843 ft | 462 kts | 191° |
| 2026-02-18 09:18 | 54.35456 | 22.97282 | 37858 ft | 462 kts | 191° |
| 2026-02-18 09:18 | 54.29157 | 22.95673 | 37846 ft | 462 kts | 191° |
| 2026-02-18 09:19 | 54.22875 | 22.94070 | 37850 ft | 463 kts | 191° |
| 2026-02-18 09:19 | 54.16618 | 22.92484 | 37845 ft | 462 kts | 191° |
| 2026-02-18 09:20 | 54.10354 | 22.90899 | 37862 ft | 462 kts | 191° |
| 2026-02-18 09:20 | 54.04022 | 22.89296 | 37873 ft | 463 kts | 191° |
| 2026-02-18 09:21 | 53.94530 | 22.86865 | 37865 ft | 463 kts | 191° |
| 2026-02-18 09:22 | 53.88113 | 22.85228 | 37873 ft | 463 kts | 191° |
| 2026-02-18 09:22 | 53.80977 | 22.83416 | 37871 ft | 464 kts | 191° |
| 2026-02-18 09:23 | 53.75037 | 22.81912 | 37867 ft | 463 kts | 192° |
| 2026-02-18 09:23 | 53.68648 | 22.80294 | 37870 ft | 464 kts | 192° |
| 2026-02-18 09:24 | 53.62252 | 22.78682 | 37868 ft | 464 kts | 191° |
| 2026-02-18 09:24 | 53.55856 | 22.77076 | 37863 ft | 465 kts | 191° |
| 2026-02-18 09:25 | 53.46301 | 22.74685 | 37849 ft | 464 kts | 191° |
| 2026-02-18 09:26 | 53.39988 | 22.73113 | 37862 ft | 464 kts | 191° |
| 2026-02-18 09:26 | 53.33528 | 22.71510 | 37838 ft | 464 kts | 191° |
| 2026-02-18 09:27 | 53.27200 | 22.69943 | 37862 ft | 464 kts | 192° |
| 2026-02-18 09:27 | 53.20788 | 22.68359 | 37854 ft | 465 kts | 192° |
| 2026-02-18 09:28 | 53.14399 | 22.66788 | 37857 ft | 465 kts | 192° |
| 2026-02-18 09:28 | 53.07998 | 22.65216 | 37886 ft | 465 kts | 192° |
| 2026-02-18 09:29 | 53.01604 | 22.63653 | 37850 ft | 464 kts | 191° |
| 2026-02-18 09:29 | 52.91988 | 22.61310 | 37870 ft | 464 kts | 192° |
| 2026-02-18 09:30 | 52.85580 | 22.59754 | 37863 ft | 464 kts | 191° |
| 2026-02-18 09:30 | 52.79179 | 22.58204 | 37875 ft | 465 kts | 192° |
| 2026-02-18 09:31 | 52.72783 | 22.56659 | 37871 ft | 466 kts | 192° |
| 2026-02-18 09:31 | 52.66422 | 22.55125 | 37869 ft | 465 kts | 192° |
| 2026-02-18 09:32 | 52.60011 | 22.53606 | 37874 ft | 466 kts | 191° |
| 2026-02-18 09:32 | 52.53559 | 22.52370 | 37877 ft | 467 kts | 190° |
| 2026-02-18 09:33 | 52.43923 | 22.50592 | 37875 ft | 466 kts | 190° |
| 2026-02-18 09:34 | 52.37505 | 22.49390 | 37870 ft | 466 kts | 190° |
| 2026-02-18 09:34 | 52.31092 | 22.48184 | 37880 ft | 466 kts | 190° |
| 2026-02-18 09:35 | 52.24625 | 22.46971 | 37868 ft | 467 kts | 190° |
| 2026-02-18 09:35 | 52.18343 | 22.45799 | 37864 ft | 467 kts | 190° |
| 2026-02-18 09:36 | 52.11897 | 22.44599 | 37864 ft | 466 kts | 190° |
| 2026-02-18 09:36 | 52.05457 | 22.43402 | 37866 ft | 466 kts | 190° |
| 2026-02-18 09:37 | 51.99088 | 22.42221 | 37874 ft | 466 kts | 190° |
| 2026-02-18 09:37 | 51.89434 | 22.40435 | 37874 ft | 467 kts | 190° |
| 2026-02-18 09:38 | 51.82892 | 22.39231 | 37878 ft | 467 kts | 190° |
| 2026-02-18 09:38 | 51.76467 | 22.38051 | 37880 ft | 467 kts | 191° |
| 2026-02-18 09:39 | 51.70016 | 22.36870 | 37873 ft | 467 kts | 191° |
| 2026-02-18 09:39 | 51.63573 | 22.35692 | 37876 ft | 468 kts | 191° |
| 2026-02-18 09:40 | 51.57129 | 22.34517 | 37882 ft | 469 kts | 189° |
| 2026-02-18 09:40 | 51.50924 | 22.33391 | 37883 ft | 468 kts | 189° |
| 2026-02-18 09:41 | 51.42523 | 22.31872 | 37895 ft | 468 kts | 189° |